sensor_id;sensor_type;location;lat;lon;timestamp;P1;durP1;ratioP1;P2;durP2;ratioP2
69937;SDS011;57248;47.320;15.998;2023-07-31T00:00:55;4.53;;;1.10;;
69937;SDS011;57248;47.320;15.998;2023-07-31T00:03:26;3.10;;;1.17;;
69937;SDS011;57248;47.320;15.998;2023-07-31T00:05:59;5.05;;;1.25;;
69937;SDS011;57248;47.320;15.998;2023-07-31T00:08:24;2.97;;;0.87;;
69937;SDS011;57248;47.320;15.998;2023-07-31T00:10:56;7.00;;;1.23;;
69937;SDS011;57248;47.320;15.998;2023-07-31T00:13:29;4.75;;;1.10;;
69937;SDS011;57248;47.320;15.998;2023-07-31T00:16:01;4.78;;;1.10;;
69937;SDS011;57248;47.320;15.998;2023-07-31T00:18:32;3.60;;;0.77;;
69937;SDS011;57248;47.320;15.998;2023-07-31T00:21:04;5.27;;;1.00;;
69937;SDS011;57248;47.320;15.998;2023-07-31T00:23:36;5.60;;;1.00;;
69937;SDS011;57248;47.320;15.998;2023-07-31T00:26:08;3.60;;;1.10;;
69937;SDS011;57248;47.320;15.998;2023-07-31T00:28:40;3.35;;;0.90;;
69937;SDS011;57248;47.320;15.998;2023-07-31T00:31:13;3.55;;;1.00;;
69937;SDS011;57248;47.320;15.998;2023-07-31T00:33:45;3.03;;;1.00;;
69937;SDS011;57248;47.320;15.998;2023-07-31T00:36:17;5.65;;;1.20;;
69937;SDS011;57248;47.320;15.998;2023-07-31T00:38:50;5.78;;;1.10;;
69937;SDS011;57248;47.320;15.998;2023-07-31T00:41:21;3.80;;;1.33;;
69937;SDS011;57248;47.320;15.998;2023-07-31T00:43:54;4.40;;;1.00;;
69937;SDS011;57248;47.320;15.998;2023-07-31T00:46:26;3.40;;;1.00;;
69937;SDS011;57248;47.320;15.998;2023-07-31T00:48:59;3.33;;;1.05;;
69937;SDS011;57248;47.320;15.998;2023-07-31T00:51:31;3.15;;;1.00;;
69937;SDS011;57248;47.320;15.998;2023-07-31T00:54:03;4.13;;;1.17;;
69937;SDS011;57248;47.320;15.998;2023-07-31T00:56:48;4.00;;;1.08;;
69937;SDS011;57248;47.320;15.998;2023-07-31T00:59:22;4.70;;;1.17;;
69937;SDS011;57248;47.320;15.998;2023-07-31T01:01:54;5.35;;;1.13;;
69937;SDS011;57248;47.320;15.998;2023-07-31T01:04:26;5.40;;;1.00;;
69937;SDS011;57248;47.320;15.998;2023-07-31T01:07:07;3.50;;;1.20;;
69937;SDS011;57248;47.320;15.998;2023-07-31T01:12:47;4.87;;;1.40;;
69937;SDS011;57248;47.320;15.998;2023-07-31T01:15:20;9.10;;;1.50;;
69937;SDS011;57248;47.320;15.998;2023-07-31T01:17:53;4.28;;;1.23;;
69937;SDS011;57248;47.320;15.998;2023-07-31T01:20:25;5.40;;;1.20;;
69937;SDS011;57248;47.320;15.998;2023-07-31T01:26:00;5.73;;;1.10;;
69937;SDS011;57248;47.320;15.998;2023-07-31T01:31:24;3.38;;;1.05;;
69937;SDS011;57248;47.320;15.998;2023-07-31T01:33:55;3.33;;;1.00;;
69937;SDS011;57248;47.320;15.998;2023-07-31T01:36:30;3.38;;;1.20;;
69937;SDS011;57248;47.320;15.998;2023-07-31T01:39:04;4.10;;;1.40;;
69937;SDS011;57248;47.320;15.998;2023-07-31T01:41:35;4.00;;;1.52;;
69937;SDS011;57248;47.320;15.998;2023-07-31T01:44:08;5.25;;;1.55;;
69937;SDS011;57248;47.320;15.998;2023-07-31T01:46:40;9.77;;;1.60;;
69937;SDS011;57248;47.320;15.998;2023-07-31T01:49:12;3.67;;;1.17;;
69937;SDS011;57248;47.320;15.998;2023-07-31T01:51:44;2.93;;;1.30;;
69937;SDS011;57248;47.320;15.998;2023-07-31T01:54:09;5.13;;;1.20;;
69937;SDS011;57248;47.320;15.998;2023-07-31T01:56:41;5.10;;;1.40;;
69937;SDS011;57248;47.320;15.998;2023-07-31T01:59:20;4.85;;;1.40;;
69937;SDS011;57248;47.320;15.998;2023-07-31T02:01:52;4.97;;;1.38;;
69937;SDS011;57248;47.320;15.998;2023-07-31T02:04:24;4.57;;;1.48;;
69937;SDS011;57248;47.320;15.998;2023-07-31T02:06:56;4.60;;;1.50;;
69937;SDS011;57248;47.320;15.998;2023-07-31T02:09:28;6.37;;;1.43;;
69937;SDS011;57248;47.320;15.998;2023-07-31T02:12:00;5.53;;;1.35;;
69937;SDS011;57248;47.320;15.998;2023-07-31T02:14:32;4.72;;;1.50;;
69937;SDS011;57248;47.320;15.998;2023-07-31T02:17:04;4.40;;;1.40;;
69937;SDS011;57248;47.320;15.998;2023-07-31T02:19:36;5.93;;;1.30;;
69937;SDS011;57248;47.320;15.998;2023-07-31T02:22:08;4.57;;;1.40;;
69937;SDS011;57248;47.320;15.998;2023-07-31T02:24:40;5.75;;;1.50;;
69937;SDS011;57248;47.320;15.998;2023-07-31T02:27:12;3.72;;;1.50;;
69937;SDS011;57248;47.320;15.998;2023-07-31T02:29:44;5.65;;;1.65;;
69937;SDS011;57248;47.320;15.998;2023-07-31T02:32:16;4.22;;;1.50;;
69937;SDS011;57248;47.320;15.998;2023-07-31T02:34:49;6.77;;;1.80;;
69937;SDS011;57248;47.320;15.998;2023-07-31T02:37:21;5.57;;;1.70;;
69937;SDS011;57248;47.320;15.998;2023-07-31T02:39:53;7.55;;;1.70;;
69937;SDS011;57248;47.320;15.998;2023-07-31T02:42:27;6.72;;;1.63;;
69937;SDS011;57248;47.320;15.998;2023-07-31T02:44:59;6.43;;;1.70;;
69937;SDS011;57248;47.320;15.998;2023-07-31T02:47:31;4.80;;;1.30;;
69937;SDS011;57248;47.320;15.998;2023-07-31T02:50:03;3.67;;;1.33;;
69937;SDS011;57248;47.320;15.998;2023-07-31T02:52:35;4.82;;;1.48;;
69937;SDS011;57248;47.320;15.998;2023-07-31T02:55:13;5.00;;;1.77;;
69937;SDS011;57248;47.320;15.998;2023-07-31T02:57:46;4.53;;;1.55;;
69937;SDS011;57248;47.320;15.998;2023-07-31T03:00:25;5.40;;;1.60;;
69937;SDS011;57248;47.320;15.998;2023-07-31T03:02:50;5.90;;;1.50;;
69937;SDS011;57248;47.320;15.998;2023-07-31T03:05:23;8.67;;;1.63;;
69937;SDS011;57248;47.320;15.998;2023-07-31T03:07:55;3.92;;;1.42;;
69937;SDS011;57248;47.320;15.998;2023-07-31T03:10:27;4.68;;;1.73;;
69937;SDS011;57248;47.320;15.998;2023-07-31T03:12:59;4.55;;;1.48;;
69937;SDS011;57248;47.320;15.998;2023-07-31T03:15:31;4.07;;;1.50;;
69937;SDS011;57248;47.320;15.998;2023-07-31T03:18:03;4.77;;;1.40;;
69937;SDS011;57248;47.320;15.998;2023-07-31T03:20:35;5.50;;;1.38;;
69937;SDS011;57248;47.320;15.998;2023-07-31T03:23:07;4.60;;;1.52;;
69937;SDS011;57248;47.320;15.998;2023-07-31T03:25:41;6.90;;;1.63;;
69937;SDS011;57248;47.320;15.998;2023-07-31T03:28:30;4.28;;;1.88;;
69937;SDS011;57248;47.320;15.998;2023-07-31T03:31:02;7.60;;;1.47;;
69937;SDS011;57248;47.320;15.998;2023-07-31T03:33:34;4.10;;;1.45;;
69937;SDS011;57248;47.320;15.998;2023-07-31T03:36:06;4.63;;;1.70;;
69937;SDS011;57248;47.320;15.998;2023-07-31T03:38:38;3.38;;;1.40;;
69937;SDS011;57248;47.320;15.998;2023-07-31T03:41:10;5.32;;;1.40;;
69937;SDS011;57248;47.320;15.998;2023-07-31T03:43:44;9.50;;;1.60;;
69937;SDS011;57248;47.320;15.998;2023-07-31T03:46:18;6.03;;;2.00;;
69937;SDS011;57248;47.320;15.998;2023-07-31T03:48:50;5.38;;;1.70;;
69937;SDS011;57248;47.320;15.998;2023-07-31T03:51:23;4.32;;;1.70;;
69937;SDS011;57248;47.320;15.998;2023-07-31T03:53:55;6.65;;;1.90;;
69937;SDS011;57248;47.320;15.998;2023-07-31T03:56:33;5.90;;;1.87;;
69937;SDS011;57248;47.320;15.998;2023-07-31T03:59:06;6.03;;;1.77;;
69937;SDS011;57248;47.320;15.998;2023-07-31T04:01:38;5.78;;;2.13;;
69937;SDS011;57248;47.320;15.998;2023-07-31T04:04:10;6.47;;;1.73;;
69937;SDS011;57248;47.320;15.998;2023-07-31T04:06:43;10.77;;;2.15;;
69937;SDS011;57248;47.320;15.998;2023-07-31T04:09:15;8.27;;;1.90;;
69937;SDS011;57248;47.320;15.998;2023-07-31T04:11:48;6.35;;;1.80;;
69937;SDS011;57248;47.320;15.998;2023-07-31T04:14:20;5.35;;;1.73;;
69937;SDS011;57248;47.320;15.998;2023-07-31T04:16:52;7.05;;;2.20;;
69937;SDS011;57248;47.320;15.998;2023-07-31T04:19:24;10.52;;;2.20;;
69937;SDS011;57248;47.320;15.998;2023-07-31T04:21:56;5.17;;;1.93;;
69937;SDS011;57248;47.320;15.998;2023-07-31T04:24:28;5.30;;;1.83;;
69937;SDS011;57248;47.320;15.998;2023-07-31T04:27:00;9.55;;;2.47;;
69937;SDS011;57248;47.320;15.998;2023-07-31T04:29:25;6.20;;;1.80;;
69937;SDS011;57248;47.320;15.998;2023-07-31T04:31:57;7.47;;;1.77;;
69937;SDS011;57248;47.320;15.998;2023-07-31T04:34:22;8.38;;;1.90;;
69937;SDS011;57248;47.320;15.998;2023-07-31T04:36:55;6.32;;;1.85;;
69937;SDS011;57248;47.320;15.998;2023-07-31T04:39:27;6.60;;;1.93;;
69937;SDS011;57248;47.320;15.998;2023-07-31T04:41:59;7.20;;;1.80;;
69937;SDS011;57248;47.320;15.998;2023-07-31T04:44:31;6.57;;;2.00;;
69937;SDS011;57248;47.320;15.998;2023-07-31T04:47:04;4.68;;;1.48;;
69937;SDS011;57248;47.320;15.998;2023-07-31T04:49:36;4.65;;;1.60;;
69937;SDS011;57248;47.320;15.998;2023-07-31T04:52:08;3.77;;;1.37;;
69937;SDS011;57248;47.320;15.998;2023-07-31T04:54:40;4.40;;;1.60;;
69937;SDS011;57248;47.320;15.998;2023-07-31T04:57:25;8.75;;;3.28;;
69937;SDS011;57248;47.320;15.998;2023-07-31T04:59:58;24.45;;;6.53;;
69937;SDS011;57248;47.320;15.998;2023-07-31T05:02:30;12.07;;;1.83;;
69937;SDS011;57248;47.320;15.998;2023-07-31T05:05:02;6.13;;;1.53;;
69937;SDS011;57248;47.320;15.998;2023-07-31T05:07:34;6.53;;;1.45;;
69937;SDS011;57248;47.320;15.998;2023-07-31T05:09:59;10.88;;;2.58;;
69937;SDS011;57248;47.320;15.998;2023-07-31T05:12:31;8.17;;;1.43;;
69937;SDS011;57248;47.320;15.998;2023-07-31T05:15:04;9.57;;;1.67;;
69937;SDS011;57248;47.320;15.998;2023-07-31T05:17:36;11.90;;;1.63;;
69937;SDS011;57248;47.320;15.998;2023-07-31T05:20:08;8.30;;;1.67;;
69937;SDS011;57248;47.320;15.998;2023-07-31T05:22:41;9.18;;;1.60;;
69937;SDS011;57248;47.320;15.998;2023-07-31T05:25:14;5.20;;;1.80;;
69937;SDS011;57248;47.320;15.998;2023-07-31T05:27:46;9.15;;;1.85;;
69937;SDS011;57248;47.320;15.998;2023-07-31T05:30:18;5.43;;;2.05;;
69937;SDS011;57248;47.320;15.998;2023-07-31T05:32:50;6.53;;;1.90;;
69937;SDS011;57248;47.320;15.998;2023-07-31T05:35:22;4.32;;;1.63;;
69937;SDS011;57248;47.320;15.998;2023-07-31T05:37:55;5.10;;;2.00;;
69937;SDS011;57248;47.320;15.998;2023-07-31T05:40:20;6.28;;;1.90;;
69937;SDS011;57248;47.320;15.998;2023-07-31T05:42:52;5.50;;;1.73;;
69937;SDS011;57248;47.320;15.998;2023-07-31T05:45:24;6.22;;;1.80;;
69937;SDS011;57248;47.320;15.998;2023-07-31T05:47:57;4.28;;;1.70;;
69937;SDS011;57248;47.320;15.998;2023-07-31T05:50:29;8.05;;;1.55;;
69937;SDS011;57248;47.320;15.998;2023-07-31T05:53:02;5.60;;;2.13;;
69937;SDS011;57248;47.320;15.998;2023-07-31T05:55:35;5.27;;;1.80;;
69937;SDS011;57248;47.320;15.998;2023-07-31T05:58:21;11.60;;;1.70;;
69937;SDS011;57248;47.320;15.998;2023-07-31T06:00:53;4.57;;;1.73;;
69937;SDS011;57248;47.320;15.998;2023-07-31T06:03:25;5.70;;;1.58;;
69937;SDS011;57248;47.320;15.998;2023-07-31T06:05:57;5.55;;;1.80;;
69937;SDS011;57248;47.320;15.998;2023-07-31T06:08:29;3.90;;;1.57;;
69937;SDS011;57248;47.320;15.998;2023-07-31T06:11:01;7.22;;;1.80;;
69937;SDS011;57248;47.320;15.998;2023-07-31T06:13:26;6.63;;;1.80;;
69937;SDS011;57248;47.320;15.998;2023-07-31T06:15:58;4.97;;;1.77;;
69937;SDS011;57248;47.320;15.998;2023-07-31T06:18:31;4.15;;;1.40;;
69937;SDS011;57248;47.320;15.998;2023-07-31T06:20:57;4.22;;;1.50;;
69937;SDS011;57248;47.320;15.998;2023-07-31T06:23:31;3.47;;;1.58;;
69937;SDS011;57248;47.320;15.998;2023-07-31T06:26:03;5.90;;;1.93;;
69937;SDS011;57248;47.320;15.998;2023-07-31T06:28:30;3.28;;;1.55;;
69937;SDS011;57248;47.320;15.998;2023-07-31T06:31:03;3.55;;;1.60;;
69937;SDS011;57248;47.320;15.998;2023-07-31T06:33:35;3.77;;;1.40;;
69937;SDS011;57248;47.320;15.998;2023-07-31T06:36:07;4.75;;;1.75;;
69937;SDS011;57248;47.320;15.998;2023-07-31T06:38:39;4.65;;;1.80;;
69937;SDS011;57248;47.320;15.998;2023-07-31T06:41:04;3.10;;;1.57;;
69937;SDS011;57248;47.320;15.998;2023-07-31T06:43:36;4.30;;;1.90;;
69937;SDS011;57248;47.320;15.998;2023-07-31T06:46:05;3.95;;;2.05;;
69937;SDS011;57248;47.320;15.998;2023-07-31T06:48:41;4.70;;;2.13;;
69937;SDS011;57248;47.320;15.998;2023-07-31T06:51:13;6.23;;;2.10;;
69937;SDS011;57248;47.320;15.998;2023-07-31T06:53:45;3.55;;;1.70;;
69937;SDS011;57248;47.320;15.998;2023-07-31T06:56:17;5.60;;;1.90;;
69937;SDS011;57248;47.320;15.998;2023-07-31T06:58:56;4.75;;;2.15;;
69937;SDS011;57248;47.320;15.998;2023-07-31T07:01:28;7.38;;;2.40;;
69937;SDS011;57248;47.320;15.998;2023-07-31T07:04:00;5.57;;;2.20;;
69937;SDS011;57248;47.320;15.998;2023-07-31T07:06:32;6.85;;;2.47;;
69937;SDS011;57248;47.320;15.998;2023-07-31T07:08:57;5.67;;;2.50;;
69937;SDS011;57248;47.320;15.998;2023-07-31T07:11:30;5.00;;;2.63;;
69937;SDS011;57248;47.320;15.998;2023-07-31T07:14:02;4.40;;;2.55;;
69937;SDS011;57248;47.320;15.998;2023-07-31T07:16:35;5.05;;;2.60;;
69937;SDS011;57248;47.320;15.998;2023-07-31T07:19:07;5.95;;;3.03;;
69937;SDS011;57248;47.320;15.998;2023-07-31T07:21:32;6.70;;;2.90;;
69937;SDS011;57248;47.320;15.998;2023-07-31T07:24:05;4.75;;;3.13;;
69937;SDS011;57248;47.320;15.998;2023-07-31T07:26:37;4.77;;;3.00;;
69937;SDS011;57248;47.320;15.998;2023-07-31T07:29:10;4.82;;;3.40;;
69937;SDS011;57248;47.320;15.998;2023-07-31T07:31:42;4.40;;;3.72;;
69937;SDS011;57248;47.320;15.998;2023-07-31T07:34:14;4.28;;;3.78;;
69937;SDS011;57248;47.320;15.998;2023-07-31T07:36:40;6.30;;;4.47;;
69937;SDS011;57248;47.320;15.998;2023-07-31T07:39:12;5.60;;;4.18;;
69937;SDS011;57248;47.320;15.998;2023-07-31T07:41:44;4.72;;;4.22;;
69937;SDS011;57248;47.320;15.998;2023-07-31T07:44:16;5.33;;;4.43;;
69937;SDS011;57248;47.320;15.998;2023-07-31T07:46:48;5.80;;;4.70;;
69937;SDS011;57248;47.320;15.998;2023-07-31T07:49:21;5.65;;;4.85;;
69937;SDS011;57248;47.320;15.998;2023-07-31T07:51:54;5.55;;;4.40;;
69937;SDS011;57248;47.320;15.998;2023-07-31T07:54:19;5.80;;;4.67;;
69937;SDS011;57248;47.320;15.998;2023-07-31T07:57:00;6.07;;;5.47;;
69937;SDS011;57248;47.320;15.998;2023-07-31T07:59:32;6.22;;;5.00;;
69937;SDS011;57248;47.320;15.998;2023-07-31T08:02:04;5.60;;;5.10;;
69937;SDS011;57248;47.320;15.998;2023-07-31T08:04:36;5.50;;;4.82;;
69937;SDS011;57248;47.320;15.998;2023-07-31T08:07:10;8.20;;;5.32;;
69937;SDS011;57248;47.320;15.998;2023-07-31T08:09:46;4.80;;;4.30;;
69937;SDS011;57248;47.320;15.998;2023-07-31T08:12:11;5.90;;;5.30;;
69937;SDS011;57248;47.320;15.998;2023-07-31T08:14:43;6.10;;;5.60;;
69937;SDS011;57248;47.320;15.998;2023-07-31T08:17:16;6.30;;;5.70;;
69937;SDS011;57248;47.320;15.998;2023-07-31T08:19:48;5.17;;;4.67;;
69937;SDS011;57248;47.320;15.998;2023-07-31T08:22:21;5.85;;;5.10;;
69937;SDS011;57248;47.320;15.998;2023-07-31T08:24:54;5.90;;;5.30;;
69937;SDS011;57248;47.320;15.998;2023-07-31T08:27:26;5.93;;;5.40;;
69937;SDS011;57248;47.320;15.998;2023-07-31T08:29:58;7.28;;;6.57;;
69937;SDS011;57248;47.320;15.998;2023-07-31T08:32:30;6.87;;;6.27;;
69937;SDS011;57248;47.320;15.998;2023-07-31T08:35:03;6.78;;;6.07;;
69937;SDS011;57248;47.320;15.998;2023-07-31T08:37:37;7.38;;;6.68;;
69937;SDS011;57248;47.320;15.998;2023-07-31T08:40:03;6.93;;;6.22;;
69937;SDS011;57248;47.320;15.998;2023-07-31T08:42:45;6.65;;;6.10;;
69937;SDS011;57248;47.320;15.998;2023-07-31T08:45:19;6.30;;;5.80;;
69937;SDS011;57248;47.320;15.998;2023-07-31T08:47:53;6.50;;;6.00;;
69937;SDS011;57248;47.320;15.998;2023-07-31T08:50:26;6.45;;;5.85;;
69937;SDS011;57248;47.320;15.998;2023-07-31T08:52:59;6.63;;;6.03;;
69937;SDS011;57248;47.320;15.998;2023-07-31T08:55:31;5.72;;;5.07;;
69937;SDS011;57248;47.320;15.998;2023-07-31T08:58:18;5.70;;;5.00;;
69937;SDS011;57248;47.320;15.998;2023-07-31T09:00:51;5.88;;;5.28;;
69937;SDS011;57248;47.320;15.998;2023-07-31T09:03:24;5.90;;;5.40;;
69937;SDS011;57248;47.320;15.998;2023-07-31T09:05:51;6.38;;;4.60;;
69937;SDS011;57248;47.320;15.998;2023-07-31T09:08:23;6.32;;;5.72;;
69937;SDS011;57248;47.320;15.998;2023-07-31T09:11:01;5.33;;;4.83;;
69937;SDS011;57248;47.320;15.998;2023-07-31T09:13:37;5.68;;;5.15;;
69937;SDS011;57248;47.320;15.998;2023-07-31T09:16:11;5.60;;;5.10;;
69937;SDS011;57248;47.320;15.998;2023-07-31T09:18:53;5.65;;;5.15;;
69937;SDS011;57248;47.320;15.998;2023-07-31T09:21:28;5.75;;;5.15;;
69937;SDS011;57248;47.320;15.998;2023-07-31T09:24:00;8.33;;;5.10;;
69937;SDS011;57248;47.320;15.998;2023-07-31T09:26:34;8.43;;;6.13;;
69937;SDS011;57248;47.320;15.998;2023-07-31T09:29:18;10.07;;;6.25;;
69937;SDS011;57248;47.320;15.998;2023-07-31T09:31:51;5.70;;;5.10;;
69937;SDS011;57248;47.320;15.998;2023-07-31T09:34:30;5.38;;;4.88;;
69937;SDS011;57248;47.320;15.998;2023-07-31T09:37:10;6.03;;;5.43;;
69937;SDS011;57248;47.320;15.998;2023-07-31T09:39:47;9.10;;;7.00;;
69937;SDS011;57248;47.320;15.998;2023-07-31T09:42:26;7.82;;;7.15;;
69937;SDS011;57248;47.320;15.998;2023-07-31T09:45:07;8.38;;;6.57;;
69937;SDS011;57248;47.320;15.998;2023-07-31T09:47:47;7.40;;;6.80;;
69937;SDS011;57248;47.320;15.998;2023-07-31T09:50:20;6.57;;;5.97;;
69937;SDS011;57248;47.320;15.998;2023-07-31T09:52:47;6.28;;;5.68;;
69937;SDS011;57248;47.320;15.998;2023-07-31T09:55:19;29.15;;;8.27;;
69937;SDS011;57248;47.320;15.998;2023-07-31T09:57:52;7.47;;;6.03;;
69937;SDS011;57248;47.320;15.998;2023-07-31T10:00:28;5.90;;;5.38;;
69937;SDS011;57248;47.320;15.998;2023-07-31T10:03:01;5.63;;;4.93;;
69937;SDS011;57248;47.320;15.998;2023-07-31T10:05:43;5.50;;;5.00;;
69937;SDS011;57248;47.320;15.998;2023-07-31T10:08:20;5.88;;;5.38;;
69937;SDS011;57248;47.320;15.998;2023-07-31T10:10:55;6.28;;;5.72;;
69937;SDS011;57248;47.320;15.998;2023-07-31T10:13:31;6.10;;;5.55;;
69937;SDS011;57248;47.320;15.998;2023-07-31T10:16:04;6.63;;;6.00;;
69937;SDS011;57248;47.320;15.998;2023-07-31T10:18:37;6.90;;;5.97;;
69937;SDS011;57248;47.320;15.998;2023-07-31T10:21:10;7.63;;;6.60;;
69937;SDS011;57248;47.320;15.998;2023-07-31T10:23:44;6.25;;;5.65;;
69937;SDS011;57248;47.320;15.998;2023-07-31T10:26:18;6.88;;;6.28;;
69937;SDS011;57248;47.320;15.998;2023-07-31T10:28:51;6.10;;;5.47;;
69937;SDS011;57248;47.320;15.998;2023-07-31T10:31:24;8.38;;;6.38;;
69937;SDS011;57248;47.320;15.998;2023-07-31T10:33:57;8.20;;;7.45;;
69937;SDS011;57248;47.320;15.998;2023-07-31T10:36:32;7.57;;;6.97;;
69937;SDS011;57248;47.320;15.998;2023-07-31T10:39:05;9.30;;;8.43;;
69937;SDS011;57248;47.320;15.998;2023-07-31T10:42:13;8.00;;;7.40;;
69937;SDS011;57248;47.320;15.998;2023-07-31T10:44:46;7.55;;;6.85;;
69937;SDS011;57248;47.320;15.998;2023-07-31T10:47:14;8.07;;;7.38;;
69937;SDS011;57248;47.320;15.998;2023-07-31T10:49:48;7.88;;;7.18;;
69937;SDS011;57248;47.320;15.998;2023-07-31T10:52:21;6.72;;;6.15;;
69937;SDS011;57248;47.320;15.998;2023-07-31T10:55:14;7.03;;;6.37;;
69937;SDS011;57248;47.320;15.998;2023-07-31T10:57:47;6.53;;;6.03;;
69937;SDS011;57248;47.320;15.998;2023-07-31T11:00:29;7.75;;;7.10;;
69937;SDS011;57248;47.320;15.998;2023-07-31T11:13:42;7.28;;;6.68;;
69937;SDS011;57248;47.320;15.998;2023-07-31T11:16:18;6.72;;;6.13;;
69937;SDS011;57248;47.320;15.998;2023-07-31T11:18:56;7.68;;;6.97;;
69937;SDS011;57248;47.320;15.998;2023-07-31T11:21:28;8.07;;;7.37;;
69937;SDS011;57248;47.320;15.998;2023-07-31T11:23:56;10.15;;;9.35;;
69937;SDS011;57248;47.320;15.998;2023-07-31T11:26:28;21.52;;;17.98;;
69937;SDS011;57248;47.320;15.998;2023-07-31T11:29:02;66.33;;;53.37;;
69937;SDS011;57248;47.320;15.998;2023-07-31T11:31:43;22.77;;;20.70;;
69937;SDS011;57248;47.320;15.998;2023-07-31T11:34:15;14.70;;;13.50;;
69937;SDS011;57248;47.320;15.998;2023-07-31T11:36:54;9.60;;;8.88;;
69937;SDS011;57248;47.320;15.998;2023-07-31T11:39:28;12.48;;;11.55;;
69937;SDS011;57248;47.320;15.998;2023-07-31T11:42:00;8.40;;;7.80;;
69937;SDS011;57248;47.320;15.998;2023-07-31T11:44:44;8.30;;;7.70;;
69937;SDS011;57248;47.320;15.998;2023-07-31T11:47:19;8.68;;;8.07;;
69937;SDS011;57248;47.320;15.998;2023-07-31T11:49:51;7.80;;;7.20;;
69937;SDS011;57248;47.320;15.998;2023-07-31T11:52:23;8.73;;;8.13;;
69937;SDS011;57248;47.320;15.998;2023-07-31T11:54:55;7.03;;;6.53;;
69937;SDS011;57248;47.320;15.998;2023-07-31T11:57:29;8.55;;;7.95;;
69937;SDS011;57248;47.320;15.998;2023-07-31T12:00:02;9.48;;;8.73;;
69937;SDS011;57248;47.320;15.998;2023-07-31T12:02:38;8.02;;;7.43;;
69937;SDS011;57248;47.320;15.998;2023-07-31T12:05:12;7.35;;;6.82;;
69937;SDS011;57248;47.320;15.998;2023-07-31T12:07:52;8.83;;;8.13;;
69937;SDS011;57248;47.320;15.998;2023-07-31T12:12:59;8.95;;;8.25;;
69937;SDS011;57248;47.320;15.998;2023-07-31T12:15:37;8.05;;;7.38;;
69937;SDS011;57248;47.320;15.998;2023-07-31T12:18:14;7.50;;;6.95;;
69937;SDS011;57248;47.320;15.998;2023-07-31T12:21:20;7.73;;;7.03;;
69937;SDS011;57248;47.320;15.998;2023-07-31T12:23:46;8.70;;;8.10;;
69937;SDS011;57248;47.320;15.998;2023-07-31T12:26:19;8.70;;;8.10;;
69937;SDS011;57248;47.320;15.998;2023-07-31T12:28:54;8.23;;;7.63;;
69937;SDS011;57248;47.320;15.998;2023-07-31T12:31:27;8.57;;;7.90;;
69937;SDS011;57248;47.320;15.998;2023-07-31T12:34:00;9.07;;;8.37;;
69937;SDS011;57248;47.320;15.998;2023-07-31T12:36:34;9.90;;;9.10;;
69937;SDS011;57248;47.320;15.998;2023-07-31T12:39:07;10.05;;;9.20;;
69937;SDS011;57248;47.320;15.998;2023-07-31T12:41:39;9.35;;;8.55;;
69937;SDS011;57248;47.320;15.998;2023-07-31T12:44:11;7.93;;;7.32;;
69937;SDS011;57248;47.320;15.998;2023-07-31T12:46:43;7.30;;;6.70;;
69937;SDS011;57248;47.320;15.998;2023-07-31T12:49:09;7.93;;;7.32;;
69937;SDS011;57248;47.320;15.998;2023-07-31T12:51:41;7.25;;;6.55;;
69937;SDS011;57248;47.320;15.998;2023-07-31T12:54:13;7.33;;;6.73;;
69937;SDS011;57248;47.320;15.998;2023-07-31T12:56:53;8.05;;;7.38;;
69937;SDS011;57248;47.320;15.998;2023-07-31T12:59:26;7.03;;;6.50;;
69937;SDS011;57248;47.320;15.998;2023-07-31T13:01:59;7.00;;;6.43;;
69937;SDS011;57248;47.320;15.998;2023-07-31T13:04:31;8.55;;;7.85;;
69937;SDS011;57248;47.320;15.998;2023-07-31T13:07:03;7.60;;;6.90;;
69937;SDS011;57248;47.320;15.998;2023-07-31T13:09:35;6.35;;;5.70;;
69937;SDS011;57248;47.320;15.998;2023-07-31T13:12:07;5.55;;;5.00;;
69937;SDS011;57248;47.320;15.998;2023-07-31T13:14:39;4.82;;;3.63;;
69937;SDS011;57248;47.320;15.998;2023-07-31T13:17:11;4.32;;;2.72;;
69937;SDS011;57248;47.320;15.998;2023-07-31T13:19:36;3.60;;;2.70;;
69937;SDS011;57248;47.320;15.998;2023-07-31T13:22:08;4.40;;;3.05;;
69937;SDS011;57248;47.320;15.998;2023-07-31T13:24:40;4.07;;;3.43;;
69937;SDS011;57248;47.320;15.998;2023-07-31T13:27:12;4.57;;;4.00;;
69937;SDS011;57248;47.320;15.998;2023-07-31T13:29:37;6.03;;;5.43;;
69937;SDS011;57248;47.320;15.998;2023-07-31T13:32:09;5.60;;;4.35;;
69937;SDS011;57248;47.320;15.998;2023-07-31T13:34:41;5.45;;;4.95;;
69937;SDS011;57248;47.320;15.998;2023-07-31T13:37:14;4.20;;;3.50;;
69937;SDS011;57248;47.320;15.998;2023-07-31T13:39:46;3.88;;;3.05;;
69937;SDS011;57248;47.320;15.998;2023-07-31T13:42:19;4.13;;;2.70;;
69937;SDS011;57248;47.320;15.998;2023-07-31T13:44:51;3.83;;;2.70;;
69937;SDS011;57248;47.320;15.998;2023-07-31T13:47:24;4.05;;;2.70;;
69937;SDS011;57248;47.320;15.998;2023-07-31T13:50:04;4.45;;;3.90;;
69937;SDS011;57248;47.320;15.998;2023-07-31T13:52:50;3.45;;;2.70;;
69937;SDS011;57248;47.320;15.998;2023-07-31T13:55:22;5.40;;;4.10;;
69937;SDS011;57248;47.320;15.998;2023-07-31T13:57:54;6.25;;;4.90;;
69937;SDS011;57248;47.320;15.998;2023-07-31T14:00:33;6.65;;;6.03;;
69937;SDS011;57248;47.320;15.998;2023-07-31T14:03:07;7.15;;;6.40;;
69937;SDS011;57248;47.320;15.998;2023-07-31T14:05:39;8.07;;;6.15;;
69937;SDS011;57248;47.320;15.998;2023-07-31T14:08:11;5.80;;;5.30;;
69937;SDS011;57248;47.320;15.998;2023-07-31T14:10:36;4.75;;;3.53;;
69937;SDS011;57248;47.320;15.998;2023-07-31T14:13:08;4.97;;;3.10;;
69937;SDS011;57248;47.320;15.998;2023-07-31T14:15:45;5.88;;;4.75;;
69937;SDS011;57248;47.320;15.998;2023-07-31T14:18:17;6.47;;;5.88;;
69937;SDS011;57248;47.320;15.998;2023-07-31T14:20:49;6.43;;;5.78;;
69937;SDS011;57248;47.320;15.998;2023-07-31T14:23:21;6.72;;;5.70;;
69937;SDS011;57248;47.320;15.998;2023-07-31T14:25:53;6.50;;;5.83;;
69937;SDS011;57248;47.320;15.998;2023-07-31T14:28:26;6.03;;;5.07;;
69937;SDS011;57248;47.320;15.998;2023-07-31T14:30:58;5.85;;;5.35;;
69937;SDS011;57248;47.320;15.998;2023-07-31T14:33:30;5.47;;;4.38;;
69937;SDS011;57248;47.320;15.998;2023-07-31T14:36:02;4.47;;;3.55;;
69937;SDS011;57248;47.320;15.998;2023-07-31T14:38:34;4.80;;;3.03;;
69937;SDS011;57248;47.320;15.998;2023-07-31T14:41:07;4.70;;;4.22;;
69937;SDS011;57248;47.320;15.998;2023-07-31T14:43:39;5.30;;;4.80;;
69937;SDS011;57248;47.320;15.998;2023-07-31T14:46:11;4.05;;;2.92;;
69937;SDS011;57248;47.320;15.998;2023-07-31T14:48:43;4.80;;;4.30;;
69937;SDS011;57248;47.320;15.998;2023-07-31T14:51:15;4.57;;;4.10;;
69937;SDS011;57248;47.320;15.998;2023-07-31T14:53:50;4.30;;;3.88;;
69937;SDS011;57248;47.320;15.998;2023-07-31T14:56:29;5.20;;;4.70;;
69937;SDS011;57248;47.320;15.998;2023-07-31T14:59:08;5.38;;;4.20;;
69937;SDS011;57248;47.320;15.998;2023-07-31T15:01:42;5.10;;;2.65;;
69937;SDS011;57248;47.320;15.998;2023-07-31T15:04:14;4.30;;;2.47;;
69937;SDS011;57248;47.320;15.998;2023-07-31T15:06:47;5.03;;;2.67;;
69937;SDS011;57248;47.320;15.998;2023-07-31T15:09:20;5.50;;;4.10;;
69937;SDS011;57248;47.320;15.998;2023-07-31T15:11:52;5.22;;;4.18;;
69937;SDS011;57248;47.320;15.998;2023-07-31T15:14:24;4.20;;;2.78;;
69937;SDS011;57248;47.320;15.998;2023-07-31T15:16:52;4.33;;;2.77;;
69937;SDS011;57248;47.320;15.998;2023-07-31T15:19:25;4.57;;;2.63;;
69937;SDS011;57248;47.320;15.998;2023-07-31T15:21:57;4.60;;;3.75;;
69937;SDS011;57248;47.320;15.998;2023-07-31T15:24:30;4.03;;;2.10;;
69937;SDS011;57248;47.320;15.998;2023-07-31T15:27:03;5.28;;;3.75;;
69937;SDS011;57248;47.320;15.998;2023-07-31T15:29:35;4.20;;;3.37;;